AAL6444 KOKC-KCLT
Flight info
| Callsign | AAL6444 |
|---|---|
| Flight time | 1h 48m |
| Altitude | 35000 |
| Route | FUNNL3 PHARA IGLOO TAZZA FILPZ4 |
| Aircraft | A321/M-SDE3FGHIRWY/LB1 |
Departure
| Time | 2026-05-08 19:28 |
|---|---|
| Airport | OKC Will Rogers World Airport (KOKC) |
Arrival
| Time | 2026-05-08 21:16 |
|---|---|
| Airport | Charlotte Douglas International Airport (KCLT) |
| Time | Latitude | Longitude | Altitude | Speed | Heading |
|---|---|---|---|---|---|
| 2026-05-08 19:20 | 35.39608 | -97.59944 | 1298 ft | 4 kts | 197° |
| 2026-05-08 19:20 | 35.39616 | -97.59941 | 1298 ft | 4 kts | 208° |
| 2026-05-08 19:20 | 35.39632 | -97.59918 | 1299 ft | 0 kts | 270° |
| 2026-05-08 19:22 | 35.39632 | -97.59937 | 1299 ft | 6 kts | 271° |
| 2026-05-08 19:22 | 35.39627 | -97.60013 | 1296 ft | 12 kts | 255° |
| 2026-05-08 19:22 | 35.39585 | -97.60127 | 1293 ft | 17 kts | 245° |
| 2026-05-08 19:22 | 35.39523 | -97.60205 | 1293 ft | 12 kts | 167° |
| 2026-05-08 19:23 | 35.39456 | -97.60137 | 1294 ft | 12 kts | 137° |
| 2026-05-08 19:23 | 35.39397 | -97.60069 | 1296 ft | 11 kts | 137° |
| 2026-05-08 19:23 | 35.39333 | -97.59995 | 1298 ft | 16 kts | 136° |
| 2026-05-08 19:23 | 35.39236 | -97.59869 | 1298 ft | 21 kts | 120° |
| 2026-05-08 19:24 | 35.39217 | -97.59689 | 1298 ft | 22 kts | 90° |
| 2026-05-08 19:24 | 35.39217 | -97.59498 | 1297 ft | 23 kts | 90° |
| 2026-05-08 19:24 | 35.39217 | -97.59302 | 1297 ft | 23 kts | 90° |
| 2026-05-08 19:24 | 35.39217 | -97.59108 | 1295 ft | 10 kts | 90° |
| 2026-05-08 19:25 | 35.39259 | -97.59062 | 1295 ft | 9 kts | 2° |
| 2026-05-08 19:25 | 35.39343 | -97.59063 | 1298 ft | 14 kts | 360° |
| 2026-05-08 19:25 | 35.39465 | -97.59064 | 1297 ft | 21 kts | 359° |
| 2026-05-08 19:25 | 35.39638 | -97.59067 | 1297 ft | 28 kts | 359° |
| 2026-05-08 19:26 | 35.39829 | -97.59064 | 1299 ft | 28 kts | 2° |
| 2026-05-08 19:26 | 35.40025 | -97.59062 | 1297 ft | 29 kts | 0° |
| 2026-05-08 19:26 | 35.40222 | -97.59064 | 1298 ft | 28 kts | 359° |
| 2026-05-08 19:26 | 35.40420 | -97.59063 | 1296 ft | 17 kts | 1° |
| 2026-05-08 19:27 | 35.40498 | -97.59015 | 1299 ft | 12 kts | 65° |
| 2026-05-08 19:27 | 35.40502 | -97.58919 | 1301 ft | 9 kts | 102° |
| 2026-05-08 19:27 | 35.40453 | -97.58897 | 1301 ft | 8 kts | 180° |
| 2026-05-08 19:27 | 35.40334 | -97.58896 | 1301 ft | 44 kts | 180° |
| 2026-05-08 19:28 | 35.39782 | -97.58895 | 1295 ft | 111 kts | 180° |
| 2026-05-08 19:28 | 35.38828 | -97.58898 | 1325 ft | 158 kts | 184° |
| 2026-05-08 19:28 | 35.37725 | -97.58903 | 1955 ft | 158 kts | 180° |
| 2026-05-08 19:28 | 35.36620 | -97.58843 | 2690 ft | 159 kts | 180° |
| 2026-05-08 19:29 | 35.35494 | -97.58741 | 3206 ft | 170 kts | 177° |
| 2026-05-08 19:29 | 35.34250 | -97.58603 | 3496 ft | 195 kts | 172° |
| 2026-05-08 19:29 | 35.33379 | -97.58102 | 3688 ft | 219 kts | 145° |
| 2026-05-08 19:29 | 35.32445 | -97.55664 | 4093 ft | 266 kts | 96° |
| 2026-05-08 19:30 | 35.32443 | -97.54121 | 4477 ft | 281 kts | 86° |
| 2026-05-08 19:30 | 35.32706 | -97.51701 | 5377 ft | 290 kts | 80° |
| 2026-05-08 19:30 | 35.33092 | -97.49252 | 6356 ft | 296 kts | 79° |
| 2026-05-08 19:30 | 35.33496 | -97.46766 | 7340 ft | 299 kts | 79° |
| 2026-05-08 19:31 | 35.33878 | -97.44238 | 8335 ft | 303 kts | 79° |
| 2026-05-08 19:31 | 35.34226 | -97.41671 | 9268 ft | 307 kts | 80° |
| 2026-05-08 19:31 | 35.34544 | -97.39067 | 10164 ft | 311 kts | 81° |
| 2026-05-08 19:31 | 35.34855 | -97.36345 | 10532 ft | 335 kts | 81° |
| 2026-05-08 19:32 | 35.35180 | -97.33418 | 10811 ft | 356 kts | 82° |
| 2026-05-08 19:32 | 35.35515 | -97.30363 | 11257 ft | 367 kts | 82° |
| 2026-05-08 19:32 | 35.35856 | -97.27241 | 11836 ft | 372 kts | 82° |
| 2026-05-08 19:32 | 35.36200 | -97.24107 | 12422 ft | 378 kts | 82° |
| 2026-05-08 19:33 | 35.36552 | -97.20887 | 13024 ft | 383 kts | 82° |
| 2026-05-08 19:33 | 35.36907 | -97.17626 | 13612 ft | 388 kts | 82° |
| 2026-05-08 19:33 | 35.37267 | -97.14329 | 14164 ft | 393 kts | 82° |
| 2026-05-08 19:33 | 35.37633 | -97.10994 | 14710 ft | 397 kts | 82° |
| 2026-05-08 19:34 | 35.38002 | -97.07619 | 15257 ft | 402 kts | 82° |
| 2026-05-08 19:34 | 35.38375 | -97.04199 | 15780 ft | 407 kts | 82° |
| 2026-05-08 19:34 | 35.38750 | -97.00731 | 16310 ft | 412 kts | 82° |
| 2026-05-08 19:34 | 35.39126 | -96.97235 | 16845 ft | 416 kts | 82° |
| 2026-05-08 19:35 | 35.39507 | -96.93697 | 17373 ft | 421 kts | 82° |
| 2026-05-08 19:35 | 35.39883 | -96.90119 | 17913 ft | 425 kts | 83° |
| 2026-05-08 19:35 | 35.40214 | -96.86498 | 18401 ft | 430 kts | 83° |
| 2026-05-08 19:35 | 35.40507 | -96.82876 | 18900 ft | 432 kts | 84° |
| 2026-05-08 19:36 | 35.40788 | -96.79180 | 19435 ft | 434 kts | 84° |
| 2026-05-08 19:36 | 35.41067 | -96.75475 | 19949 ft | 437 kts | 84° |
| 2026-05-08 19:36 | 35.41355 | -96.71743 | 20452 ft | 440 kts | 84° |
| 2026-05-08 19:36 | 35.41649 | -96.68028 | 20946 ft | 443 kts | 84° |
| 2026-05-08 19:37 | 35.41952 | -96.64258 | 21459 ft | 446 kts | 84° |
| 2026-05-08 19:37 | 35.42262 | -96.60443 | 21960 ft | 449 kts | 84° |
| 2026-05-08 19:37 | 35.42574 | -96.56605 | 22446 ft | 452 kts | 84° |
| 2026-05-08 19:37 | 35.42881 | -96.52796 | 22922 ft | 455 kts | 84° |
| 2026-05-08 19:38 | 35.43189 | -96.48920 | 23385 ft | 457 kts | 84° |
| 2026-05-08 19:38 | 35.43500 | -96.45001 | 23768 ft | 461 kts | 84° |
| 2026-05-08 19:38 | 35.43810 | -96.41116 | 24090 ft | 464 kts | 84° |
| 2026-05-08 19:38 | 35.44124 | -96.37138 | 24446 ft | 468 kts | 84° |
| 2026-05-08 19:39 | 35.44437 | -96.33140 | 24799 ft | 471 kts | 84° |
| 2026-05-08 19:39 | 35.44749 | -96.29125 | 25145 ft | 474 kts | 85° |
| 2026-05-08 19:39 | 35.45061 | -96.25095 | 25474 ft | 477 kts | 85° |
| 2026-05-08 19:39 | 35.45374 | -96.21034 | 25812 ft | 480 kts | 85° |
| 2026-05-08 19:40 | 35.45684 | -96.16981 | 26144 ft | 482 kts | 85° |
| 2026-05-08 19:40 | 35.45999 | -96.12847 | 26478 ft | 485 kts | 85° |
| 2026-05-08 19:40 | 35.46310 | -96.08752 | 26805 ft | 488 kts | 85° |
| 2026-05-08 19:40 | 35.46640 | -96.04549 | 27068 ft | 492 kts | 85° |
| 2026-05-08 19:41 | 35.47020 | -96.00397 | 27365 ft | 496 kts | 84° |
| 2026-05-08 19:41 | 35.47449 | -95.96182 | 27674 ft | 499 kts | 83° |
| 2026-05-08 19:41 | 35.47900 | -95.91941 | 27982 ft | 502 kts | 83° |
| 2026-05-08 19:41 | 35.48353 | -95.87675 | 28294 ft | 504 kts | 83° |
| 2026-05-08 19:42 | 35.48796 | -95.83392 | 28598 ft | 507 kts | 84° |
| 2026-05-08 19:42 | 35.49230 | -95.79068 | 28896 ft | 510 kts | 84° |
| 2026-05-08 19:42 | 35.49652 | -95.74779 | 29185 ft | 512 kts | 84° |
| 2026-05-08 19:42 | 35.50071 | -95.70425 | 29466 ft | 515 kts | 84° |
| 2026-05-08 19:43 | 35.50488 | -95.66038 | 29752 ft | 517 kts | 84° |
| 2026-05-08 19:43 | 35.50901 | -95.61666 | 30038 ft | 520 kts | 84° |
| 2026-05-08 19:43 | 35.51319 | -95.57228 | 30281 ft | 523 kts | 84° |
| 2026-05-08 19:43 | 35.51738 | -95.52820 | 30518 ft | 525 kts | 84° |
| 2026-05-08 19:44 | 35.52169 | -95.48354 | 30755 ft | 528 kts | 84° |
| 2026-05-08 19:44 | 35.52599 | -95.43873 | 31094 ft | 528 kts | 84° |
| 2026-05-08 19:44 | 35.53024 | -95.39388 | 31430 ft | 528 kts | 85° |
| 2026-05-08 19:44 | 35.53446 | -95.34908 | 31753 ft | 528 kts | 85° |
| 2026-05-08 19:45 | 35.53868 | -95.30419 | 32072 ft | 529 kts | 85° |
| 2026-05-08 19:45 | 35.54285 | -95.25965 | 32359 ft | 530 kts | 85° |
| 2026-05-08 19:45 | 35.54706 | -95.21461 | 32661 ft | 531 kts | 85° |
| 2026-05-08 19:45 | 35.55125 | -95.16932 | 32968 ft | 531 kts | 85° |
| 2026-05-08 19:46 | 35.55538 | -95.12418 | 33259 ft | 532 kts | 85° |
| 2026-05-08 19:46 | 35.55947 | -95.07898 | 33563 ft | 532 kts | 85° |
| 2026-05-08 19:46 | 35.56767 | -94.98878 | 34111 ft | 534 kts | 85° |
| 2026-05-08 19:47 | 35.57180 | -94.94358 | 34337 ft | 535 kts | 86° |
| 2026-05-08 19:47 | 35.57595 | -94.89808 | 34497 ft | 537 kts | 86° |
| 2026-05-08 19:47 | 35.58008 | -94.85236 | 34710 ft | 539 kts | 86° |
| 2026-05-08 19:47 | 35.58421 | -94.80644 | 34885 ft | 540 kts | 86° |
| 2026-05-08 19:48 | 35.59229 | -94.71537 | 34931 ft | 535 kts | 86° |
| 2026-05-08 19:48 | 35.60026 | -94.62448 | 34947 ft | 534 kts | 86° |
| 2026-05-08 19:49 | 35.60820 | -94.53345 | 34947 ft | 535 kts | 87° |
| 2026-05-08 19:49 | 35.61610 | -94.44226 | 34948 ft | 537 kts | 86° |
| 2026-05-08 19:50 | 35.62394 | -94.35102 | 34944 ft | 536 kts | 87° |
| 2026-05-08 19:50 | 35.63171 | -94.25976 | 34948 ft | 537 kts | 87° |
| 2026-05-08 19:51 | 35.63944 | -94.16849 | 34933 ft | 537 kts | 87° |
| 2026-05-08 19:51 | 35.64699 | -94.07744 | 34932 ft | 539 kts | 87° |
| 2026-05-08 19:52 | 35.65452 | -93.98567 | 34944 ft | 539 kts | 88° |
| 2026-05-08 19:52 | 35.66210 | -93.89391 | 34948 ft | 539 kts | 87° |
| 2026-05-08 19:53 | 35.66958 | -93.80181 | 34952 ft | 540 kts | 88° |
| 2026-05-08 19:53 | 35.67698 | -93.70986 | 34940 ft | 541 kts | 87° |
| 2026-05-08 19:54 | 35.68430 | -93.61811 | 34948 ft | 542 kts | 88° |
| 2026-05-08 19:54 | 35.69163 | -93.52564 | 34946 ft | 542 kts | 88° |
| 2026-05-08 19:55 | 35.69882 | -93.43305 | 34941 ft | 542 kts | 88° |
| 2026-05-08 19:55 | 35.70594 | -93.34105 | 34950 ft | 543 kts | 88° |
| 2026-05-08 19:56 | 35.71302 | -93.24851 | 34982 ft | 543 kts | 88° |
| 2026-05-08 19:56 | 35.71999 | -93.15598 | 34976 ft | 542 kts | 88° |
| 2026-05-08 19:57 | 35.72693 | -93.06353 | 34971 ft | 541 kts | 88° |
| 2026-05-08 19:57 | 35.73374 | -92.97151 | 34961 ft | 542 kts | 88° |
| 2026-05-08 19:58 | 35.74047 | -92.87946 | 34956 ft | 542 kts | 88° |
| 2026-05-08 19:58 | 35.74723 | -92.78670 | 34962 ft | 542 kts | 88° |
| 2026-05-08 19:59 | 35.75399 | -92.69396 | 34965 ft | 542 kts | 88° |
| 2026-05-08 19:59 | 35.76057 | -92.60146 | 34951 ft | 543 kts | 89° |
| 2026-05-08 20:00 | 35.76706 | -92.50910 | 34952 ft | 544 kts | 89° |
| 2026-05-08 20:00 | 35.77353 | -92.41644 | 34960 ft | 544 kts | 89° |
| 2026-05-08 20:01 | 35.77994 | -92.32323 | 34968 ft | 545 kts | 89° |
| 2026-05-08 20:01 | 35.78620 | -92.23009 | 34961 ft | 545 kts | 89° |
| 2026-05-08 20:02 | 35.79234 | -92.13751 | 34968 ft | 546 kts | 89° |
| 2026-05-08 20:02 | 35.79862 | -92.04420 | 34975 ft | 546 kts | 89° |
| 2026-05-08 20:03 | 35.80485 | -91.95066 | 34975 ft | 546 kts | 89° |
| 2026-05-08 20:03 | 35.81083 | -91.85777 | 34962 ft | 546 kts | 89° |
| 2026-05-08 20:04 | 35.81671 | -91.76428 | 34970 ft | 546 kts | 89° |
| 2026-05-08 20:04 | 35.82142 | -91.67082 | 34971 ft | 545 kts | 91° |
| 2026-05-08 20:05 | 35.82379 | -91.57749 | 34978 ft | 544 kts | 93° |
| 2026-05-08 20:05 | 35.82546 | -91.48474 | 34972 ft | 544 kts | 93° |
| 2026-05-08 20:06 | 35.82759 | -91.39122 | 34974 ft | 545 kts | 92° |
| 2026-05-08 20:06 | 35.83020 | -91.29753 | 34987 ft | 545 kts | 92° |
| 2026-05-08 20:07 | 35.83278 | -91.20452 | 35006 ft | 545 kts | 92° |
| 2026-05-08 20:07 | 35.83502 | -91.11079 | 35007 ft | 545 kts | 92° |
| 2026-05-08 20:08 | 35.83713 | -91.01770 | 34996 ft | 546 kts | 92° |
| 2026-05-08 20:08 | 35.83920 | -90.92383 | 34977 ft | 546 kts | 92° |
| 2026-05-08 20:09 | 35.84085 | -90.84583 | 34966 ft | 546 kts | 93° |
| 2026-05-08 20:09 | 35.84312 | -90.73682 | 34943 ft | 547 kts | 93° |
| 2026-05-08 20:10 | 35.84473 | -90.65871 | 34938 ft | 548 kts | 93° |
| 2026-05-08 20:10 | 35.84663 | -90.56423 | 34943 ft | 550 kts | 93° |
| 2026-05-08 20:11 | 35.84840 | -90.47041 | 34952 ft | 550 kts | 93° |
| 2026-05-08 20:11 | 35.85004 | -90.37584 | 34962 ft | 551 kts | 94° |
| 2026-05-08 20:12 | 35.85166 | -90.28087 | 34965 ft | 553 kts | 93° |
| 2026-05-08 20:12 | 35.85320 | -90.18628 | 34977 ft | 554 kts | 94° |
| 2026-05-08 20:13 | 35.85467 | -90.09112 | 34988 ft | 555 kts | 94° |
| 2026-05-08 20:13 | 35.85607 | -89.99590 | 35005 ft | 555 kts | 94° |
| 2026-05-08 20:14 | 35.85747 | -89.90106 | 34986 ft | 556 kts | 94° |
| 2026-05-08 20:14 | 35.85874 | -89.80564 | 34985 ft | 557 kts | 94° |
| 2026-05-08 20:15 | 35.85988 | -89.71040 | 34950 ft | 557 kts | 94° |
| 2026-05-08 20:15 | 35.86110 | -89.61448 | 34974 ft | 558 kts | 94° |
| 2026-05-08 20:16 | 35.86216 | -89.51865 | 35006 ft | 558 kts | 94° |
| 2026-05-08 20:16 | 35.86304 | -89.42321 | 35009 ft | 558 kts | 94° |
| 2026-05-08 20:17 | 35.86393 | -89.32784 | 35010 ft | 558 kts | 94° |
| 2026-05-08 20:17 | 35.86472 | -89.23205 | 34992 ft | 558 kts | 94° |
| 2026-05-08 20:18 | 35.86544 | -89.13621 | 34981 ft | 559 kts | 94° |
| 2026-05-08 20:18 | 35.86614 | -89.03998 | 34980 ft | 560 kts | 95° |
| 2026-05-08 20:19 | 35.86666 | -88.94447 | 34990 ft | 561 kts | 95° |
| 2026-05-08 20:19 | 35.86718 | -88.84789 | 34996 ft | 561 kts | 95° |
| 2026-05-08 20:20 | 35.86761 | -88.75148 | 34985 ft | 562 kts | 95° |
| 2026-05-08 20:20 | 35.86799 | -88.65542 | 34982 ft | 563 kts | 95° |
| 2026-05-08 20:21 | 35.86825 | -88.55873 | 34988 ft | 563 kts | 95° |
| 2026-05-08 20:21 | 35.86837 | -88.46228 | 34986 ft | 564 kts | 95° |
| 2026-05-08 20:22 | 35.86853 | -88.36545 | 34984 ft | 565 kts | 95° |
| 2026-05-08 20:22 | 35.86866 | -88.26840 | 34996 ft | 565 kts | 95° |
| 2026-05-08 20:23 | 35.86862 | -88.17178 | 35007 ft | 565 kts | 95° |
| 2026-05-08 20:23 | 35.86854 | -88.07451 | 35000 ft | 565 kts | 95° |
| 2026-05-08 20:24 | 35.86837 | -87.97786 | 35004 ft | 566 kts | 95° |
| 2026-05-08 20:24 | 35.86808 | -87.88053 | 35011 ft | 567 kts | 95° |
| 2026-05-08 20:25 | 35.86769 | -87.78331 | 35019 ft | 567 kts | 95° |
| 2026-05-08 20:25 | 35.86729 | -87.68654 | 35031 ft | 568 kts | 95° |
| 2026-05-08 20:26 | 35.86676 | -87.58882 | 35023 ft | 568 kts | 95° |
| 2026-05-08 20:26 | 35.86608 | -87.49139 | 35026 ft | 568 kts | 96° |
| 2026-05-08 20:27 | 35.86544 | -87.39432 | 35029 ft | 569 kts | 95° |
| 2026-05-08 20:27 | 35.86473 | -87.29670 | 35029 ft | 569 kts | 96° |
| 2026-05-08 20:28 | 35.86395 | -87.19914 | 35026 ft | 570 kts | 96° |
| 2026-05-08 20:28 | 35.86311 | -87.10182 | 35025 ft | 570 kts | 96° |
| 2026-05-08 20:29 | 35.86211 | -87.00390 | 35027 ft | 570 kts | 96° |
| 2026-05-08 20:29 | 35.86097 | -86.90583 | 35013 ft | 571 kts | 96° |
| 2026-05-08 20:30 | 35.85982 | -86.80815 | 35009 ft | 572 kts | 96° |
| 2026-05-08 20:30 | 35.85858 | -86.71001 | 35027 ft | 573 kts | 96° |
| 2026-05-08 20:31 | 35.85727 | -86.61163 | 35043 ft | 573 kts | 96° |
| 2026-05-08 20:31 | 35.85594 | -86.51351 | 35025 ft | 574 kts | 96° |
| 2026-05-08 20:32 | 35.85454 | -86.41503 | 35024 ft | 575 kts | 96° |
| 2026-05-08 20:32 | 35.85298 | -86.31632 | 35032 ft | 576 kts | 96° |
| 2026-05-08 20:33 | 35.85130 | -86.21804 | 35042 ft | 576 kts | 96° |
| 2026-05-08 20:33 | 35.84960 | -86.11894 | 35020 ft | 577 kts | 96° |
| 2026-05-08 20:34 | 35.84782 | -86.02024 | 35012 ft | 579 kts | 96° |
| 2026-05-08 20:35 | 35.84495 | -85.87148 | 35013 ft | 580 kts | 96° |
| 2026-05-08 20:35 | 35.84302 | -85.77201 | 35020 ft | 579 kts | 96° |
| 2026-05-08 20:36 | 35.84100 | -85.67263 | 35026 ft | 579 kts | 96° |
| 2026-05-08 20:36 | 35.83877 | -85.57401 | 35033 ft | 579 kts | 97° |
| 2026-05-08 20:37 | 35.83643 | -85.47456 | 35042 ft | 579 kts | 97° |
| 2026-05-08 20:37 | 35.83409 | -85.37550 | 35029 ft | 579 kts | 97° |
| 2026-05-08 20:38 | 35.83166 | -85.27626 | 35017 ft | 580 kts | 97° |
| 2026-05-08 20:38 | 35.82919 | -85.17680 | 35023 ft | 581 kts | 97° |
| 2026-05-08 20:39 | 35.82659 | -85.07707 | 35030 ft | 582 kts | 97° |
| 2026-05-08 20:39 | 35.82396 | -84.97725 | 35017 ft | 583 kts | 97° |
| 2026-05-08 20:40 | 35.82118 | -84.87714 | 35012 ft | 584 kts | 97° |
| 2026-05-08 20:40 | 35.81832 | -84.77690 | 35023 ft | 585 kts | 97° |
| 2026-05-08 20:41 | 35.81538 | -84.67722 | 35027 ft | 585 kts | 97° |
| 2026-05-08 20:41 | 35.81931 | -84.57625 | 35018 ft | 590 kts | 87° |
| 2026-05-08 20:42 | 35.82653 | -84.47596 | 35016 ft | 591 kts | 87° |
| 2026-05-08 20:42 | 35.83362 | -84.37487 | 35023 ft | 592 kts | 87° |
| 2026-05-08 20:43 | 35.84066 | -84.27363 | 35027 ft | 592 kts | 87° |
| 2026-05-08 20:43 | 35.84770 | -84.17221 | 35018 ft | 593 kts | 87° |
| 2026-05-08 20:44 | 35.85462 | -84.07073 | 35020 ft | 594 kts | 87° |
| 2026-05-08 20:44 | 35.86140 | -83.96914 | 35018 ft | 594 kts | 87° |
| 2026-05-08 20:45 | 35.86808 | -83.86748 | 35019 ft | 594 kts | 87° |
| 2026-05-08 20:45 | 35.87472 | -83.76635 | 35020 ft | 595 kts | 87° |
| 2026-05-08 20:46 | 35.88125 | -83.66451 | 35021 ft | 595 kts | 87° |
| 2026-05-08 20:46 | 35.88777 | -83.56289 | 35024 ft | 594 kts | 87° |
| 2026-05-08 20:47 | 35.88814 | -83.46142 | 35017 ft | 587 kts | 102° |
| 2026-05-08 20:47 | 35.87099 | -83.36472 | 35019 ft | 577 kts | 113° |
| 2026-05-08 20:47 | 35.86029 | -83.31694 | 34913 ft | 577 kts | 113° |
| 2026-05-08 20:48 | 35.84962 | -83.26910 | 34399 ft | 578 kts | 113° |
| 2026-05-08 20:48 | 35.83890 | -83.22114 | 33725 ft | 580 kts | 113° |
| 2026-05-08 20:48 | 35.82824 | -83.17339 | 33315 ft | 575 kts | 112° |
| 2026-05-08 20:48 | 35.81767 | -83.12598 | 32796 ft | 572 kts | 112° |
| 2026-05-08 20:49 | 35.80734 | -83.07942 | 32314 ft | 569 kts | 111° |
| 2026-05-08 20:49 | 35.79694 | -83.03250 | 31815 ft | 566 kts | 111° |
| 2026-05-08 20:49 | 35.78661 | -82.98579 | 31341 ft | 563 kts | 111° |
| 2026-05-08 20:49 | 35.77631 | -82.93926 | 30851 ft | 559 kts | 110° |
| 2026-05-08 20:50 | 35.76629 | -82.89408 | 30382 ft | 546 kts | 110° |
| 2026-05-08 20:50 | 35.75638 | -82.84953 | 29896 ft | 534 kts | 110° |
| 2026-05-08 20:50 | 35.74657 | -82.80580 | 29419 ft | 522 kts | 110° |
| 2026-05-08 20:50 | 35.73695 | -82.76316 | 28984 ft | 511 kts | 110° |
| 2026-05-08 20:51 | 35.72752 | -82.72136 | 28593 ft | 500 kts | 110° |
| 2026-05-08 20:51 | 35.71829 | -82.68047 | 28183 ft | 490 kts | 110° |
| 2026-05-08 20:51 | 35.70922 | -82.64038 | 27793 ft | 480 kts | 110° |
| 2026-05-08 20:51 | 35.70027 | -82.60103 | 27419 ft | 476 kts | 110° |
| 2026-05-08 20:52 | 35.69137 | -82.56233 | 27041 ft | 474 kts | 110° |
| 2026-05-08 20:52 | 35.68238 | -82.52341 | 26665 ft | 471 kts | 110° |
| 2026-05-08 20:52 | 35.67345 | -82.48461 | 26274 ft | 468 kts | 109° |
| 2026-05-08 20:52 | 35.66458 | -82.44614 | 25894 ft | 466 kts | 109° |
| 2026-05-08 20:53 | 35.65876 | -82.42083 | 25634 ft | 463 kts | 109° |
| 2026-05-08 20:53 | 35.65003 | -82.38288 | 25255 ft | 461 kts | 109° |
| 2026-05-08 20:53 | 35.64130 | -82.34505 | 24877 ft | 458 kts | 109° |
| 2026-05-08 20:53 | 35.62975 | -82.29506 | 24330 ft | 454 kts | 109° |
| 2026-05-08 20:54 | 35.62400 | -82.27000 | 24064 ft | 447 kts | 109° |
| 2026-05-08 20:54 | 35.61564 | -82.23356 | 23679 ft | 437 kts | 109° |
| 2026-05-08 20:54 | 35.60753 | -82.19836 | 23247 ft | 427 kts | 109° |
| 2026-05-08 20:54 | 35.59941 | -82.16345 | 22875 ft | 418 kts | 109° |
| 2026-05-08 20:55 | 35.59139 | -82.12918 | 22473 ft | 415 kts | 109° |
| 2026-05-08 20:55 | 35.58350 | -82.09556 | 22087 ft | 412 kts | 109° |
| 2026-05-08 20:55 | 35.57525 | -82.06198 | 21697 ft | 408 kts | 114° |
| 2026-05-08 20:55 | 35.56433 | -82.03007 | 21317 ft | 403 kts | 118° |
| 2026-05-08 20:56 | 35.55295 | -81.99875 | 20930 ft | 400 kts | 118° |
| 2026-05-08 20:56 | 35.54167 | -81.96766 | 20559 ft | 398 kts | 118° |
| 2026-05-08 20:56 | 35.53039 | -81.93653 | 20168 ft | 395 kts | 118° |
| 2026-05-08 20:56 | 35.51926 | -81.90576 | 19788 ft | 391 kts | 118° |
| 2026-05-08 20:57 | 35.50828 | -81.87541 | 19411 ft | 388 kts | 118° |
| 2026-05-08 20:57 | 35.49740 | -81.84541 | 19038 ft | 386 kts | 117° |
| 2026-05-08 20:57 | 35.48650 | -81.81535 | 18647 ft | 384 kts | 117° |
| 2026-05-08 20:57 | 35.47562 | -81.78541 | 18257 ft | 383 kts | 117° |
| 2026-05-08 20:58 | 35.46483 | -81.75567 | 17850 ft | 380 kts | 117° |
| 2026-05-08 20:58 | 35.45410 | -81.72615 | 17473 ft | 376 kts | 117° |
| 2026-05-08 20:58 | 35.44345 | -81.69691 | 17102 ft | 372 kts | 117° |
| 2026-05-08 20:58 | 35.43402 | -81.66788 | 16732 ft | 370 kts | 111° |
| 2026-05-08 20:59 | 35.42566 | -81.63806 | 16354 ft | 368 kts | 111° |
| 2026-05-08 20:59 | 35.41733 | -81.60849 | 15984 ft | 365 kts | 111° |
| 2026-05-08 20:59 | 35.40904 | -81.57918 | 15597 ft | 364 kts | 111° |
| 2026-05-08 20:59 | 35.40070 | -81.54975 | 15223 ft | 361 kts | 111° |
| 2026-05-08 21:00 | 35.39253 | -81.52096 | 14854 ft | 359 kts | 111° |
| 2026-05-08 21:00 | 35.38433 | -81.49207 | 14499 ft | 357 kts | 111° |
| 2026-05-08 21:00 | 35.37627 | -81.46371 | 14240 ft | 352 kts | 111° |
| 2026-05-08 21:00 | 35.36828 | -81.43553 | 13866 ft | 350 kts | 111° |
| 2026-05-08 21:01 | 35.36033 | -81.40745 | 13518 ft | 347 kts | 111° |
| 2026-05-08 21:01 | 35.35242 | -81.37956 | 13088 ft | 345 kts | 111° |
| 2026-05-08 21:01 | 35.34457 | -81.35197 | 12756 ft | 342 kts | 111° |
| 2026-05-08 21:01 | 35.33669 | -81.32419 | 12344 ft | 341 kts | 111° |
| 2026-05-08 21:02 | 35.32894 | -81.29689 | 11924 ft | 340 kts | 111° |
| 2026-05-08 21:02 | 35.32127 | -81.26998 | 11672 ft | 334 kts | 111° |
| 2026-05-08 21:02 | 35.31360 | -81.24314 | 11280 ft | 333 kts | 111° |
| 2026-05-08 21:02 | 35.30606 | -81.21684 | 10883 ft | 321 kts | 111° |
| 2026-05-08 21:03 | 35.29870 | -81.19121 | 10699 ft | 321 kts | 111° |
| 2026-05-08 21:03 | 35.29129 | -81.16537 | 10491 ft | 321 kts | 111° |
| 2026-05-08 21:03 | 35.28407 | -81.14006 | 10342 ft | 309 kts | 111° |
| 2026-05-08 21:03 | 35.27706 | -81.11556 | 10209 ft | 300 kts | 111° |
| 2026-05-08 21:04 | 35.26765 | -81.09366 | 10108 ft | 285 kts | 133° |
| 2026-05-08 21:04 | 35.25319 | -81.07831 | 9944 ft | 268 kts | 155° |
| 2026-05-08 21:04 | 35.23609 | -81.07044 | 9426 ft | 262 kts | 175° |
| 2026-05-08 21:04 | 35.21795 | -81.06863 | 8918 ft | 261 kts | 181° |
| 2026-05-08 21:05 | 35.20001 | -81.06718 | 8455 ft | 261 kts | 180° |
| 2026-05-08 21:05 | 35.18188 | -81.06563 | 8011 ft | 260 kts | 179° |
| 2026-05-08 21:05 | 35.16386 | -81.06403 | 7560 ft | 259 kts | 179° |
| 2026-05-08 21:05 | 35.14588 | -81.06242 | 7144 ft | 255 kts | 178° |
| 2026-05-08 21:06 | 35.12896 | -81.06088 | 7032 ft | 233 kts | 178° |
| 2026-05-08 21:06 | 35.11323 | -81.05935 | 7038 ft | 222 kts | 178° |
| 2026-05-08 21:06 | 35.09814 | -81.05596 | 7036 ft | 223 kts | 157° |
| 2026-05-08 21:06 | 35.08644 | -81.04361 | 7044 ft | 228 kts | 123° |
| 2026-05-08 21:07 | 35.08214 | -81.02527 | 7049 ft | 231 kts | 89° |
| 2026-05-08 21:07 | 35.08672 | -81.00669 | 7041 ft | 231 kts | 55° |
| 2026-05-08 21:07 | 35.09884 | -80.99416 | 7041 ft | 229 kts | 20° |
| 2026-05-08 21:07 | 35.11432 | -80.99127 | 7033 ft | 225 kts | 356° |
| 2026-05-08 21:08 | 35.12981 | -80.99255 | 6759 ft | 223 kts | 353° |
| 2026-05-08 21:08 | 35.14505 | -80.99446 | 6420 ft | 223 kts | 352° |
| 2026-05-08 21:08 | 35.16055 | -80.99658 | 6037 ft | 223 kts | 352° |
| 2026-05-08 21:08 | 35.17596 | -80.99874 | 5699 ft | 222 kts | 352° |
| 2026-05-08 21:09 | 35.19128 | -81.00098 | 5328 ft | 220 kts | 352° |
| 2026-05-08 21:09 | 35.20637 | -81.00317 | 4959 ft | 217 kts | 352° |
| 2026-05-08 21:09 | 35.22137 | -81.00532 | 4581 ft | 215 kts | 352° |
| 2026-05-08 21:09 | 35.23597 | -81.00744 | 4228 ft | 207 kts | 352° |
| 2026-05-08 21:10 | 35.24996 | -81.00944 | 3865 ft | 198 kts | 352° |
| 2026-05-08 21:10 | 35.26317 | -81.01128 | 3566 ft | 190 kts | 352° |
| 2026-05-08 21:10 | 35.27617 | -81.01312 | 3274 ft | 187 kts | 352° |
| 2026-05-08 21:10 | 35.28910 | -81.01496 | 3045 ft | 186 kts | 352° |
| 2026-05-08 21:11 | 35.30190 | -81.01681 | 3026 ft | 186 kts | 352° |
| 2026-05-08 21:11 | 35.31469 | -81.01869 | 3030 ft | 184 kts | 352° |
| 2026-05-08 21:11 | 35.32747 | -81.02054 | 3024 ft | 185 kts | 352° |
| 2026-05-08 21:11 | 35.34037 | -81.02235 | 3041 ft | 186 kts | 352° |
| 2026-05-08 21:12 | 35.35321 | -81.02403 | 3023 ft | 185 kts | 357° |
| 2026-05-08 21:12 | 35.36528 | -81.01944 | 3021 ft | 186 kts | 40° |
| 2026-05-08 21:12 | 35.37168 | -81.00602 | 3032 ft | 185 kts | 83° |
| 2026-05-08 21:12 | 35.36977 | -80.99085 | 3033 ft | 181 kts | 121° |
| 2026-05-08 21:13 | 35.36089 | -80.98061 | 3028 ft | 176 kts | 158° |
| 2026-05-08 21:13 | 35.34916 | -80.97803 | 3040 ft | 174 kts | 177° |
| 2026-05-08 21:13 | 35.33699 | -80.97702 | 2912 ft | 175 kts | 177° |
| 2026-05-08 21:13 | 35.32481 | -80.97599 | 2721 ft | 173 kts | 178° |
| 2026-05-08 21:14 | 35.31279 | -80.97496 | 2492 ft | 173 kts | 177° |
| 2026-05-08 21:14 | 35.30086 | -80.97393 | 2269 ft | 170 kts | 177° |
| 2026-05-08 21:14 | 35.28917 | -80.97293 | 2041 ft | 166 kts | 177° |
| 2026-05-08 21:14 | 35.27801 | -80.97196 | 1851 ft | 156 kts | 178° |
| 2026-05-08 21:15 | 35.26754 | -80.97106 | 1626 ft | 146 kts | 176° |
| 2026-05-08 21:15 | 35.25753 | -80.97020 | 1424 ft | 143 kts | 178° |
| 2026-05-08 21:15 | 35.24757 | -80.96934 | 1224 ft | 143 kts | 177° |
| 2026-05-08 21:15 | 35.23777 | -80.96847 | 1029 ft | 143 kts | 178° |
| 2026-05-08 21:16 | 35.22786 | -80.96762 | 841 ft | 143 kts | 178° |
| 2026-05-08 21:16 | 35.21809 | -80.96675 | 728 ft | 131 kts | 178° |
| 2026-05-08 21:16 | 35.21038 | -80.96615 | 721 ft | 80 kts | 176° |
| 2026-05-08 21:16 | 35.20744 | -80.96591 | 726 ft | 23 kts | 174° |
| 2026-05-08 21:17 | 35.20562 | -80.96573 | 730 ft | 31 kts | 174° |
| 2026-05-08 21:17 | 35.20444 | -80.96502 | 729 ft | 17 kts | 141° |
| 2026-05-08 21:17 | 35.20372 | -80.96396 | 729 ft | 18 kts | 80° |
| 2026-05-08 21:17 | 35.20518 | -80.96368 | 728 ft | 29 kts | 356° |
| 2026-05-08 21:18 | 35.20705 | -80.96377 | 725 ft | 10 kts | 20° |
| 2026-05-08 21:18 | 35.20732 | -80.96255 | 726 ft | 22 kts | 84° |
| 2026-05-08 21:18 | 35.20803 | -80.96046 | 726 ft | 33 kts | 41° |
| 2026-05-08 21:18 | 35.21021 | -80.95855 | 726 ft | 43 kts | 37° |
| 2026-05-08 21:19 | 35.21136 | -80.95579 | 723 ft | 37 kts | 89° |
| 2026-05-08 21:19 | 35.21147 | -80.95262 | 721 ft | 37 kts | 86° |
| 2026-05-08 21:19 | 35.21160 | -80.95016 | 723 ft | 20 kts | 82° |
| 2026-05-08 21:19 | 35.21238 | -80.94898 | 722 ft | 20 kts | 1° |
| 2026-05-08 21:20 | 35.21379 | -80.94910 | 722 ft | 21 kts | 355° |
| 2026-05-08 21:20 | 35.21536 | -80.94922 | 719 ft | 23 kts | 356° |
| 2026-05-08 21:20 | 35.21703 | -80.94939 | 720 ft | 25 kts | 354° |
| 2026-05-08 21:20 | 35.21872 | -80.94931 | 717 ft | 23 kts | 27° |
| 2026-05-08 21:21 | 35.21980 | -80.94865 | 719 ft | 4 kts | 29° |
| 2026-05-08 21:26 | 35.21968 | -80.94847 | 720 ft | 0 kts | 21° |